CDT,Max TemperatureF,Mean TemperatureF,Min TemperatureF,Max Dew PointF,MeanDew PointF,Min DewpointF,Max Humidity, Mean Humidity, Min Humidity, Max Sea Level PressureIn, Mean Sea Level PressureIn, Min Sea Level PressureIn, Max VisibilityMiles, Mean VisibilityMiles, Min VisibilityMiles, Max Wind SpeedMPH, Mean Wind SpeedMPH, Max Gust SpeedMPH,PrecipitationIn, CloudCover, Events, WindDirDegrees
2013-5-1,81,67,52,59,57,52,93,69,45,30.11,30.07,29.98,10,10,10,16,6,20,0.00,0,,163
2013-5-2,78,64,50,65,59,50,100,80,60,30.13,30.09,30.03,10,7,2,18,7,22,0.52,5,Rain-Thunderstorm,359
2013-5-3,69,58,47,63,53,46,100,87,73,30.06,29.94,29.80,10,7,3,32,13,45,0.24,7,Rain,84
2013-5-4,60,56,51,59,55,51,100,95,90,30.02,29.94,29.85,10,9,5,23,7,29,0.27,8,Rain,158
2013-5-5,66,60,53,58,55,52,100,87,73,30.01,29.97,29.91,10,8,3,18,10,25,0.24,8,Rain,36
2013-5-6,69,61,52,60,56,52,100,84,68,29.99,29.96,29.93,10,10,4,14,5,17,T,8,Rain,34
2013-5-7,78,65,52,58,54,48,93,68,42,30.03,29.99,29.96,10,10,10,14,5,18,0.00,4,,18
2013-5-8,81,66,50,60,55,51,100,70,39,30.04,30.00,29.97,10,8,2,10,3,23,0.00,0,,262
2013-5-9,68,63,58,65,61,54,100,90,80,30.03,29.94,29.83,10,7,0,17,6,22,1.04,6,Fog-Rain-Thunderstorm,177
2013-5-10,66,58,50,61,54,50,97,85,73,29.98,29.92,29.83,10,9,6,18,10,23,T,7,,328
2013-5-11,65,56,46,54,45,31,93,65,36,30.12,30.00,29.94,10,9,5,29,11,40,T,5,Rain,312
2013-5-12,58,49,40,35,31,27,67,51,35,30.20,30.16,30.12,10,10,10,22,11,30,0.00,0,,305
2013-5-13,68,52,36,44,39,35,92,63,34,30.22,30.15,30.07,10,10,10,15,7,21,0.00,0,,247
2013-5-14,87,70,53,64,55,41,71,57,43,30.04,29.86,29.75,10,10,10,22,15,28,0.00,0,,210
2013-5-15,87,78,69,68,61,53,84,65,46,29.88,29.84,29.79,10,10,5,21,13,30,0.10,1,Rain-Thunderstorm,248
2013-5-16,80,70,60,66,61,54,90,69,48,29.96,29.90,29.81,10,10,3,20,7,25,0.11,2,Rain,240
2013-5-17,78,67,56,65,61,57,100,81,62,29.99,29.97,29.93,10,8,2,16,6,21,0.00,4,,148
2013-5-18,81,70,58,65,62,57,100,79,58,30.04,29.99,29.92,10,6,0,13,5,18,0.00,4,Fog,145
2013-5-19,87,73,58,72,66,57,100,81,61,29.94,29.87,29.75,10,6,0,22,11,30,0.00,1,Fog,153
2013-5-20,86,75,63,68,62,56,74,59,44,29.89,29.82,29.73,10,8,1,23,15,36,1.09,4,Rain-Thunderstorm,227
2013-5-21,81,72,63,66,63,59,93,76,58,29.85,29.75,29.69,10,10,6,25,14,32,0.10,5,Rain-Thunderstorm,202
2013-5-22,76,69,61,64,58,52,87,65,43,29.82,29.72,29.66,10,10,7,22,12,28,0.02,7,Rain,234
2013-5-23,62,53,44,55,51,42,93,80,67,30.27,30.01,29.82,10,9,4,21,10,26,0.01,7,Rain,331
2013-5-24,69,54,39,41,37,33,85,56,27,30.43,30.35,30.28,10,10,10,14,7,20,0.00,0,,35
2013-5-25,57,51,45,50,44,37,83,67,51,30.42,30.31,30.24,10,10,6,15,8,18,0.31,6,Rain-Thunderstorm,91
2013-5-26,66,59,52,60,57,52,93,89,84,30.28,30.19,30.04,10,9,4,18,11,23,0.56,6,Rain-Thunderstorm,120
2013-5-27,78,69,60,70,62,57,100,87,74,30.10,29.95,29.80,10,8,0,30,9,40,0.87,5,Fog-Rain-Thunderstorm,187
2013-5-28,82,73,64,71,65,62,93,79,65,29.90,29.85,29.80,10,10,9,26,14,38,0.01,2,Thunderstorm,201
2013-5-29,86,76,65,69,64,59,81,68,55,29.97,29.93,29.88,10,10,10,26,13,38,T,3,Rain-Thunderstorm,194
2013-5-30,84,76,68,70,66,64,87,73,58,29.96,29.90,29.82,10,10,4,33,16,41,0.37,5,Rain-Thunderstorm,177
2013-5-31,78,71,64,72,66,62,93,84,74,29.91,29.85,29.77,10,8,2,41,14,58,0.77,6,Rain-Thunderstorm,189